Terminal Aerodrome Forecast
Issued by NWS Wilmington, OH

Current Version | Previous Version | Graphics & Text | Print | Product List | Glossary On
Versions: 1 2 3 4 5 6 7 8 9 10 11 12 13 14 15 16 17 18 19 20 21 22 23 24 25 26 27 28
000
FTUS41 KILN 271100
TAFCVG
TAF
KCVG 271138Z 2712/2818 23008KT P6SM -SHRA VCTS BKN025CB
      TEMPO 2712/2715 4SM -TSRA
     FM271700 26012G22KT P6SM VCTS BKN035CB
     FM272000 28014G22KT P6SM BKN040
     FM280000 30009KT P6SM SCT030 BKN250
     FM281300 30012KT P6SM SCT020 BKN250=

USA.gov is the U.S. government's official web portal to all federal, state and local government web resources and services.